Time;durP1;ratioP1;P1;durP2;ratioP2;P2;SDS_P1;SDS_P2;PMS_P1;PMS_P2;Temp;Humidity;BMP_temperature;BMP_pressure;BME280_temperature;BME280_humidity;BME280_pressure;Samples;Min_cycle;Max_cycle;Signal;HPM_P1;HPM_P2
2021/03/11 00:00:42;;;;;;;24.63;17.20;;;7.90;99.90;;;;;;5054099;28;20861;-69
2021/03/11 00:03:08;;;;;;;20.80;16.20;;;7.90;99.90;;;;;;5052967;28;20534;-69
2021/03/11 00:05:35;;;;;;;19.70;14.63;;;7.90;99.90;;;;;;5054385;28;20167;-69
2021/03/11 00:08:01;;;;;;;21.60;15.50;;;7.90;99.90;;;;;;5053964;28;20417;-68
2021/03/11 00:10:27;;;;;;;22.60;15.60;;;7.90;99.90;;;;;;5053037;28;20495;-68
2021/03/11 00:12:53;;;;;;;22.57;16.13;;;7.90;99.90;;;;;;5053978;28;20769;-69
2021/03/11 00:15:20;;;;;;;22.67;15.80;;;7.90;99.90;;;;;;5053797;28;20227;-69
2021/03/11 00:17:46;;;;;;;21.47;16.00;;;7.90;99.90;;;;;;5054143;28;20222;-69
2021/03/11 00:20:15;;;;;;;21.20;14.77;;;7.80;99.90;;;;;;5053639;28;20444;-69
2021/03/11 00:22:41;;;;;;;22.03;15.60;;;7.80;99.90;;;;;;5053509;28;20176;-69
2021/03/11 00:25:09;;;;;;;27.07;16.63;;;7.80;99.90;;;;;;5046700;28;20418;-69
2021/03/11 00:27:35;;;;;;;20.30;15.60;;;7.90;99.90;;;;;;5052248;28;20424;-69
2021/03/11 00:30:03;;;;;;;22.03;15.10;;;7.90;99.90;;;;;;5051949;28;20823;-68
2021/03/11 00:32:29;;;;;;;22.13;16.13;;;7.90;99.90;;;;;;5049647;28;20428;-68
2021/03/11 00:34:54;;;;;;;20.37;14.80;;;7.80;99.90;;;;;;5048235;28;20777;-68
2021/03/11 00:37:20;;;;;;;21.30;15.57;;;7.90;99.90;;;;;;5049398;28;20236;-68
2021/03/11 00:39:45;;;;;;;23.17;15.97;;;7.90;99.90;;;;;;5041145;28;20202;-68
2021/03/11 00:42:11;;;;;;;20.80;14.73;;;7.90;99.90;;;;;;5041447;28;20247;-69
2021/03/11 00:44:36;;;;;;;20.07;14.23;;;7.90;99.90;;;;;;5040963;28;20202;-68
2021/03/11 00:47:05;;;;;;;19.40;14.07;;;7.90;99.90;;;;;;5041095;28;20175;-68
2021/03/11 00:49:30;;;;;;;19.50;14.60;;;7.90;99.90;;;;;;5049270;28;20176;-68
2021/03/11 00:51:56;;;;;;;21.67;14.73;;;7.90;99.90;;;;;;5061065;28;20408;-69
2021/03/11 00:54:21;;;;;;;21.93;14.10;;;7.90;99.90;;;;;;5054524;28;20198;-69
2021/03/11 00:56:47;;;;;;;18.13;14.17;;;7.90;99.90;;;;;;5067575;28;20207;-68
2021/03/11 00:59:12;;;;;;;21.97;14.90;;;7.90;99.90;;;;;;5064285;28;20163;-68
2021/03/11 01:01:38;;;;;;;22.50;15.73;;;7.90;99.90;;;;;;5055707;28;20331;-68
2021/03/11 01:04:05;;;;;;;23.07;15.30;;;7.90;99.90;;;;;;5046081;28;20681;-68
2021/03/11 01:06:31;;;;;;;21.43;14.90;;;7.90;99.90;;;;;;5058943;28;20174;-68
2021/03/11 01:08:56;;;;;;;23.50;14.90;;;7.90;99.90;;;;;;5060047;28;20434;-68
2021/03/11 01:11:22;;;;;;;26.07;16.73;;;7.80;99.90;;;;;;5060323;28;20197;-69
2021/03/11 01:13:47;;;;;;;21.27;15.03;;;7.80;99.90;;;;;;5043980;28;20195;-69
2021/03/11 01:16:13;;;;;;;22.50;13.77;;;7.80;99.90;;;;;;5041391;28;20187;-68
2021/03/11 01:18:38;;;;;;;21.60;15.33;;;7.70;99.90;;;;;;5039888;28;20640;-68
2021/03/11 01:21:04;;;;;;;24.10;17.40;;;7.70;99.90;;;;;;5039953;28;20639;-68
2021/03/11 01:23:30;;;;;;;20.87;14.57;;;7.70;99.90;;;;;;5040494;28;20326;-68
2021/03/11 01:25:55;;;;;;;19.73;14.07;;;7.70;99.90;;;;;;5060200;28;20178;-69
2021/03/11 01:28:21;;;;;;;20.30;16.53;;;7.70;99.90;;;;;;5058385;28;20194;-69
2021/03/11 01:30:46;;;;;;;21.27;14.80;;;7.70;99.90;;;;;;5060364;28;20677;-69
2021/03/11 01:33:12;;;;;;;22.53;14.47;;;7.70;99.90;;;;;;5060080;28;20284;-68
2021/03/11 01:35:38;;;;;;;21.40;15.67;;;7.70;99.90;;;;;;5060591;28;20230;-69
2021/03/11 01:38:05;;;;;;;19.90;15.67;;;7.60;99.90;;;;;;5055144;28;20189;-68
2021/03/11 01:40:30;;;;;;;22.47;15.47;;;7.70;99.90;;;;;;5055217;28;20204;-68
2021/03/11 01:42:56;;;;;;;21.70;15.20;;;7.60;99.90;;;;;;5056655;28;20424;-68
2021/03/11 01:45:22;;;;;;;19.60;14.10;;;7.70;99.90;;;;;;5055854;28;20204;-68
2021/03/11 01:47:47;;;;;;;20.20;14.47;;;7.70;99.90;;;;;;5055368;28;20178;-68
2021/03/11 01:50:13;;;;;;;22.30;15.17;;;7.70;99.90;;;;;;5041687;28;20434;-69
2021/03/11 01:52:40;;;;;;;22.87;16.13;;;7.70;99.90;;;;;;5038948;28;20199;-69
2021/03/11 01:55:07;;;;;;;18.73;13.70;;;7.70;99.90;;;;;;5036813;28;20958;-69
2021/03/11 01:57:33;;;;;;;20.23;14.83;;;7.70;99.90;;;;;;5037599;28;20402;-67
2021/03/11 02:00:01;;;;;;;18.07;12.93;;;7.80;99.90;;;;;;5037493;28;20545;-67
2021/03/11 02:02:26;;;;;;;20.40;14.30;;;7.80;99.90;;;;;;5037109;28;20424;-69
2021/03/11 02:04:52;;;;;;;18.63;13.33;;;7.80;99.90;;;;;;5036608;28;20885;-68
2021/03/11 02:07:17;;;;;;;19.80;13.73;;;7.80;99.90;;;;;;5036529;28;20194;-67
2021/03/11 02:09:43;;;;;;;16.83;12.23;;;7.80;99.90;;;;;;5037253;28;20187;-67
2021/03/11 02:12:37;;;;;;;17.37;12.63;;;7.80;99.90;;;;;;5036410;28;20642;-68
2021/03/11 02:15:11;;;;;;;20.30;13.67;;;7.80;99.90;;;;;;5036340;28;20712;-68
2021/03/11 02:17:45;;;;;;;17.27;11.63;;;7.70;99.90;;;;;;5036883;28;20422;-68
2021/03/11 02:20:44;;;;;;;15.13;11.20;;;7.80;99.90;;;;;;5048660;28;20432;-68
2021/03/11 02:23:24;;;;;;;18.30;11.67;;;7.80;99.90;;;;;;5056291;28;20468;-68
2021/03/11 02:26:18;;;;;;;15.47;11.60;;;7.90;99.90;;;;;;5055742;28;20413;-68
2021/03/11 02:29:22;;;;;;;17.15;13.63;;;7.90;99.90;;;;;;5051593;28;20417;-68
2021/03/11 02:31:48;;;;;;;13.13;11.17;;;7.90;99.90;;;;;;5043111;28;20210;-68
2021/03/11 02:34:20;;;;;;;12.07;9.93;;;8.00;99.90;;;;;;5055887;28;20416;-68
2021/03/11 02:36:51;;;;;;;14.87;10.67;;;8.00;99.90;;;;;;5055415;28;20937;-68
2021/03/11 02:39:20;;;;;;;13.90;11.18;;;8.00;99.90;;;;;;5047401;28;20421;-67
2021/03/11 02:41:46;;;;;;;12.47;9.03;;;8.00;99.90;;;;;;5036763;28;20817;-67
2021/03/11 02:44:13;;;;;;;12.37;9.00;;;8.10;99.90;;;;;;5035928;28;20542;-69
2021/03/11 02:46:40;;;;;;;10.20;8.33;;;8.10;99.90;;;;;;5038525;28;20422;-68
2021/03/11 02:49:06;;;;;;;11.13;7.93;;;8.10;99.90;;;;;;5053985;28;20534;-68
2021/03/11 02:51:32;;;;;;;10.57;7.90;;;8.20;99.90;;;;;;5053525;28;20466;-68
2021/03/11 02:53:58;;;;;;;9.83;7.70;;;8.20;99.90;;;;;;5055175;28;20213;-68
2021/03/11 02:56:24;;;;;;;11.63;7.27;;;8.20;99.90;;;;;;5055387;28;20424;-69
2021/03/11 02:58:51;;;;;;;9.17;6.63;;;8.20;99.90;;;;;;5054047;28;20418;-69
2021/03/11 03:01:18;;;;;;;8.23;6.40;;;8.20;99.90;;;;;;5035644;28;20531;-69
2021/03/11 03:03:45;;;;;;;9.20;7.33;;;8.20;99.90;;;;;;5036718;28;20516;-69
2021/03/11 03:06:11;;;;;;;7.80;6.33;;;8.20;99.90;;;;;;5035200;28;20417;-68
2021/03/11 03:08:38;;;;;;;7.17;5.80;;;8.20;99.90;;;;;;5034940;28;20409;-69
2021/03/11 03:11:04;;;;;;;7.40;5.70;;;8.30;99.90;;;;;;5035385;28;20260;-68
2021/03/11 03:13:31;;;;;;;6.90;5.07;;;8.30;99.90;;;;;;5036123;28;20429;-68
2021/03/11 03:15:58;;;;;;;6.00;5.20;;;8.30;99.90;;;;;;5035580;28;20451;-68
2021/03/11 03:18:27;;;;;;;6.60;5.00;;;8.30;99.90;;;;;;5034707;28;20413;-68
2021/03/11 03:20:54;;;;;;;5.33;4.67;;;8.30;99.90;;;;;;5033840;28;20473;-69
2021/03/11 03:23:21;;;;;;;5.80;4.87;;;8.20;99.90;;;;;;5034687;28;20488;-68
2021/03/11 03:25:47;;;;;;;5.10;4.60;;;8.30;99.90;;;;;;5034964;28;20423;-68
2021/03/11 03:28:13;;;;;;;5.00;4.10;;;8.30;99.90;;;;;;5035350;28;20492;-68
2021/03/11 03:30:39;;;;;;;5.33;4.67;;;8.30;99.90;;;;;;5035132;28;20430;-69
2021/03/11 03:33:05;;;;;;;5.83;5.13;;;8.30;99.90;;;;;;5034779;28;20426;-68
2021/03/11 03:35:30;;;;;;;6.30;4.60;;;8.30;99.90;;;;;;5035569;28;20188;-68
2021/03/11 03:37:56;;;;;;;8.17;5.07;;;8.30;99.90;;;;;;5034811;28;20186;-69
2021/03/11 03:40:23;;;;;;;6.63;4.83;;;8.40;99.90;;;;;;5036284;28;20201;-68
2021/03/11 03:42:58;;;;;;;6.00;5.00;;;8.40;99.90;;;;;;5054001;28;20281;-68
2021/03/11 03:45:27;;;;;;;5.90;4.27;;;8.30;99.90;;;;;;5052419;28;20439;-68
2021/03/11 03:47:56;;;;;;;6.50;4.23;;;8.30;99.90;;;;;;5034951;28;20934;-68
2021/03/11 03:50:23;;;;;;;5.30;4.63;;;8.30;99.90;;;;;;5034363;28;20492;-68
2021/03/11 03:52:51;;;;;;;5.93;4.83;;;8.20;99.90;;;;;;5036622;28;20416;-69
2021/03/11 03:55:18;;;;;;;5.40;4.77;;;8.20;99.90;;;;;;5042323;28;20413;-69
2021/03/11 03:57:48;;;;;;;6.13;5.50;;;8.20;99.90;;;;;;5044943;28;20508;-68
2021/03/11 04:00:14;;;;;;;6.73;5.17;;;8.20;99.90;;;;;;5053743;28;20426;-68
2021/03/11 04:02:41;;;;;;;5.87;5.07;;;8.10;99.90;;;;;;5058918;28;20410;-68
2021/03/11 04:05:08;;;;;;;6.37;5.70;;;8.20;99.90;;;;;;5044227;28;20537;-68
2021/03/11 04:07:33;;;;;;;6.33;5.73;;;8.20;99.90;;;;;;5034632;28;20945;-68
2021/03/11 04:10:03;;;;;;;6.73;5.87;;;8.20;99.90;;;;;;5034901;28;20444;-68
2021/03/11 04:12:30;;;;;;;7.03;5.80;;;8.20;99.90;;;;;;5034786;28;20591;-68
2021/03/11 04:14:56;;;;;;;7.47;5.87;;;8.20;99.90;;;;;;5038326;28;20404;-68
2021/03/11 04:17:22;;;;;;;7.10;6.20;;;8.20;99.90;;;;;;5053637;28;20913;-68
2021/03/11 04:19:48;;;;;;;6.90;5.83;;;8.20;99.90;;;;;;5052220;28;20563;-69
2021/03/11 04:22:14;;;;;;;6.60;5.90;;;8.10;99.90;;;;;;5053099;28;20444;-68
2021/03/11 04:24:41;;;;;;;6.83;6.00;;;8.10;99.90;;;;;;5054031;28;20447;-68
2021/03/11 04:27:07;;;;;;;6.50;5.80;;;8.10;99.90;;;;;;5051799;28;20167;-68
2021/03/11 04:29:34;;;;;;;6.13;5.53;;;8.20;99.90;;;;;;5034155;28;20416;-68
2021/03/11 04:32:00;;;;;;;7.80;7.00;;;8.20;99.90;;;;;;5035290;28;20489;-68
2021/03/11 04:34:27;;;;;;;8.20;6.63;;;8.20;99.90;;;;;;5034481;28;20398;-68
2021/03/11 04:36:53;;;;;;;7.30;6.60;;;8.20;99.90;;;;;;5033621;28;20405;-68
2021/03/11 04:39:19;;;;;;;7.30;6.27;;;8.20;99.90;;;;;;5046808;28;20464;-68
2021/03/11 04:41:47;;;;;;;8.87;7.37;;;8.20;99.90;;;;;;5051335;28;20441;-68
2021/03/11 04:44:14;;;;;;;8.33;6.10;;;8.10;99.90;;;;;;5052968;28;20782;-68
2021/03/11 04:46:40;;;;;;;7.80;6.40;;;8.20;99.90;;;;;;5053942;28;20407;-68
2021/03/11 04:49:06;;;;;;;6.23;5.20;;;8.20;99.90;;;;;;5042908;28;20438;-68
2021/03/11 04:51:33;;;;;;;8.53;5.67;;;8.20;99.90;;;;;;5033861;28;20555;-68
2021/03/11 04:53:59;;;;;;;6.73;5.40;;;8.20;99.90;;;;;;5034225;28;20834;-68
2021/03/11 04:56:26;;;;;;;6.87;5.17;;;8.30;99.90;;;;;;5033968;28;20426;-69
2021/03/11 04:58:54;;;;;;;6.43;5.33;;;8.30;99.90;;;;;;5033518;28;20450;-68
2021/03/11 05:01:32;;;;;;;7.37;5.80;;;8.30;99.90;;;;;;5053088;28;20459;-68
2021/03/11 05:04:01;;;;;;;5.67;4.87;;;8.30;99.90;;;;;;5037038;28;20934;-68
2021/03/11 05:06:27;;;;;;;5.30;4.80;;;8.30;99.90;;;;;;5033720;28;20439;-69
2021/03/11 05:08:52;;;;;;;7.03;5.17;;;8.30;99.90;;;;;;5033932;28;20414;-68
2021/03/11 05:11:18;;;;;;;6.50;4.97;;;8.30;99.90;;;;;;5051430;28;20225;-68
2021/03/11 05:13:43;;;;;;;4.50;4.10;;;8.30;99.90;;;;;;5068757;28;20202;-68
2021/03/11 05:16:09;;;;;;;5.37;4.60;;;8.30;99.90;;;;;;5078564;28;20695;-68
2021/03/11 05:18:35;;;;;;;5.30;4.80;;;8.40;99.90;;;;;;5062919;28;20177;-68
2021/03/11 05:21:01;;;;;;;5.67;4.53;;;8.40;99.90;;;;;;5057743;28;20575;-67
2021/03/11 05:23:27;;;;;;;5.00;4.10;;;8.40;99.90;;;;;;5055869;28;20206;-67
2021/03/11 05:25:53;;;;;;;5.10;4.43;;;8.40;99.90;;;;;;5057183;28;20418;-68
2021/03/11 05:28:20;;;;;;;5.30;4.57;;;8.50;99.90;;;;;;5057226;28;20194;-68
2021/03/11 05:30:45;;;;;;;4.73;3.90;;;8.50;99.90;;;;;;5053292;28;20495;-68
2021/03/11 05:33:11;;;;;;;4.97;4.23;;;8.50;99.90;;;;;;5046918;28;20424;-68
2021/03/11 05:35:37;;;;;;;4.67;3.93;;;8.50;99.90;;;;;;5039444;28;20417;-67
2021/03/11 05:38:03;;;;;;;5.57;4.30;;;8.50;99.90;;;;;;5046371;28;20732;-68
2021/03/11 05:40:29;;;;;;;4.13;3.73;;;8.50;99.90;;;;;;5049893;28;20204;-67
2021/03/11 05:42:58;;;;;;;4.40;3.80;;;8.50;99.90;;;;;;5050317;28;20478;-68
2021/03/11 05:45:26;;;;;;;5.23;4.30;;;8.60;99.90;;;;;;5042881;28;20953;-68
2021/03/11 05:47:52;;;;;;;4.83;4.20;;;8.60;99.90;;;;;;5049283;28;20418;-67
2021/03/11 05:50:19;;;;;;;5.13;4.00;;;8.60;99.90;;;;;;5040935;28;20519;-69
2021/03/11 05:52:45;;;;;;;5.47;4.03;;;8.60;99.90;;;;;;5047239;28;20417;-68
2021/03/11 05:55:12;;;;;;;4.33;3.97;;;8.60;99.90;;;;;;5047984;28;20425;-68
2021/03/11 05:57:39;;;;;;;6.47;4.87;;;8.60;99.90;;;;;;5048047;28;20436;-68
2021/03/11 06:00:07;;;;;;;4.53;4.00;;;8.60;99.90;;;;;;5056312;28;20570;-68
2021/03/11 06:02:33;;;;;;;3.83;3.43;;;8.60;99.90;;;;;;5052594;28;20428;-68
2021/03/11 06:04:58;;;;;;;4.17;3.87;;;8.60;99.90;;;;;;5036899;28;20466;-68
2021/03/11 06:07:24;;;;;;;4.33;3.90;;;8.60;99.90;;;;;;5040215;28;20935;-68
2021/03/11 06:10:04;;;;;;;4.10;3.03;;;8.60;99.90;;;;;;5045490;28;20226;-68
2021/03/11 06:12:31;;;;;;;4.07;3.67;;;8.60;99.90;;;;;;5046849;28;20468;-68
2021/03/11 06:15:17;;;;;;;3.60;3.30;;;8.60;99.90;;;;;;5052128;28;20468;-69
2021/03/11 06:17:43;;;;;;;4.43;4.03;;;8.60;99.90;;;;;;5056636;28;20427;-69
2021/03/11 06:20:10;;;;;;;6.60;4.93;;;8.60;99.90;;;;;;5065542;28;20493;-69
2021/03/11 06:22:36;;;;;;;4.87;4.30;;;8.60;99.90;;;;;;5057730;28;20548;-69
2021/03/11 06:25:03;;;;;;;3.93;3.53;;;8.70;99.90;;;;;;5053209;28;20473;-69
2021/03/11 06:27:28;;;;;;;4.07;3.67;;;8.70;99.90;;;;;;5044550;28;21015;-68
2021/03/11 06:29:56;;;;;;;4.07;3.63;;;8.60;99.90;;;;;;5069039;28;20478;-68
2021/03/11 06:32:22;;;;;;;4.93;3.47;;;8.70;99.90;;;;;;5053044;28;20224;-69
2021/03/11 06:34:48;;;;;;;5.40;3.97;;;8.70;99.90;;;;;;5051826;28;20517;-70
2021/03/11 06:37:15;;;;;;;4.37;3.90;;;8.80;99.90;;;;;;5051849;28;20499;-68
2021/03/11 06:39:43;;;;;;;4.20;3.80;;;8.70;99.90;;;;;;5041139;28;20211;-69
2021/03/11 06:42:10;;;;;;;4.90;4.40;;;8.70;99.90;;;;;;5048387;28;20435;-68
2021/03/11 06:44:43;;;;;;;4.70;3.60;;;8.80;99.90;;;;;;5040911;28;20514;-67
2021/03/11 06:47:17;;;;;;;5.67;4.27;;;8.80;99.90;;;;;;5046517;28;21081;-68
2021/03/11 06:50:03;;;;;;;4.20;3.80;;;8.70;99.90;;;;;;5048786;28;21214;-69
2021/03/11 06:52:29;;;;;;;5.17;3.97;;;8.80;99.90;;;;;;5053038;28;20429;-71
2021/03/11 06:55:05;;;;;;;4.40;3.97;;;8.80;99.90;;;;;;5045478;28;20945;-68
2021/03/11 06:57:35;;;;;;;4.47;3.50;;;8.80;99.90;;;;;;5068238;28;20730;-69
2021/03/11 07:00:14;;;;;;;4.80;4.30;;;8.80;99.90;;;;;;5056545;28;21006;-69
2021/03/11 07:02:58;;;;;;;3.80;3.50;;;8.90;99.90;;;;;;5064219;28;20495;-69
2021/03/11 07:05:28;;;;;;;4.33;3.93;;;8.90;99.90;;;;;;5052955;28;20421;-69
2021/03/11 07:08:08;;;;;;;4.37;3.97;;;8.90;99.90;;;;;;5059105;28;20469;-69
2021/03/11 07:10:35;;;;;;;4.20;3.73;;;8.90;99.90;;;;;;5044384;28;20455;-70
2021/03/11 07:13:01;;;;;;;4.40;4.00;;;8.90;99.90;;;;;;5026538;28;20873;-68
2021/03/11 07:15:30;;;;;;;4.40;4.00;;;9.00;99.90;;;;;;5039084;28;20432;-70
2021/03/11 07:17:58;;;;;;;4.53;4.03;;;9.00;99.90;;;;;;5051457;28;20447;-68
2021/03/11 07:20:25;;;;;;;3.80;3.30;;;9.00;99.90;;;;;;5059419;28;20448;-67
2021/03/11 07:23:04;;;;;;;4.23;3.80;;;9.00;99.90;;;;;;5049175;28;20414;-68
2021/03/11 07:25:36;;;;;;;4.17;3.77;;;9.10;99.90;;;;;;5041281;28;20449;-69
2021/03/11 07:28:03;;;;;;;5.07;4.10;;;9.10;99.90;;;;;;5039941;28;20419;-69
2021/03/11 07:30:30;;;;;;;4.20;3.67;;;9.10;99.90;;;;;;5053285;28;20972;-68
2021/03/11 07:33:02;;;;;;;4.50;3.90;;;9.10;99.90;;;;;;5055501;28;20438;-69
2021/03/11 07:35:31;;;;;;;4.33;3.50;;;9.10;99.90;;;;;;5061382;28;20525;-69
2021/03/11 07:41:19;;;;;;;4.63;3.70;;;9.20;99.90;;;;;;5045875;28;20432;-70
2021/03/11 07:47:07;;;;;;;4.50;3.70;;;9.30;99.90;;;;;;5048771;28;20500;-72
2021/03/11 07:49:33;;;;;;;4.10;3.70;;;9.30;99.90;;;;;;5035946;28;20413;-70
2021/03/11 07:52:01;;;;;;;4.03;3.70;;;9.30;99.90;;;;;;5041614;28;20645;-68
2021/03/11 07:54:26;;;;;;;5.50;3.90;;;9.30;99.90;;;;;;5055522;28;21034;-68
2021/03/11 07:56:52;;;;;;;4.07;3.53;;;9.30;99.90;;;;;;5057466;28;20508;-68
2021/03/11 07:59:19;;;;;;;3.70;3.40;;;9.40;99.90;;;;;;5055296;28;20247;-69
2021/03/11 08:01:54;;;;;;;3.47;3.17;;;9.50;99.90;;;;;;5054632;28;20443;-69
2021/03/11 08:04:22;;;;;;;3.33;3.03;;;9.50;99.90;;;;;;5054292;28;20547;-69
2021/03/11 08:06:48;;;;;;;3.60;3.30;;;9.60;99.90;;;;;;5054091;28;20552;-70
2021/03/11 08:09:34;;;;;;;3.37;3.07;;;9.60;99.90;;;;;;5052174;28;20452;-69
2021/03/11 08:12:28;;;;;;;4.70;3.77;;;9.70;99.90;;;;;;5054133;28;20491;-70
2021/03/11 08:14:58;;;;;;;4.60;3.50;;;9.70;99.90;;;;;;5053890;28;20412;-69
2021/03/11 08:17:44;;;;;;;3.30;2.90;;;9.70;99.90;;;;;;5071067;28;20443;-69
2021/03/11 08:20:19;;;;;;;3.60;3.30;;;9.80;99.90;;;;;;5073807;28;20947;-70
2021/03/11 08:22:55;;;;;;;3.67;3.37;;;9.80;99.90;;;;;;5074690;28;20447;-70
2021/03/11 08:25:40;;;;;;;4.63;3.60;;;9.80;99.90;;;;;;5068329;28;20757;-69
2021/03/11 08:28:09;;;;;;;3.77;3.27;;;9.90;99.90;;;;;;5053652;28;20403;-69
2021/03/11 08:30:38;;;;;;;5.80;4.60;;;9.90;99.90;;;;;;5054077;28;20415;-68
2021/03/11 08:33:04;;;;;;;6.00;3.33;;;9.90;99.90;;;;;;5054258;28;20401;-68
2021/03/11 08:35:37;;;;;;;4.30;3.70;;;9.90;99.90;;;;;;5053667;28;20462;-68
2021/03/11 08:38:24;;;;;;;3.10;2.80;;;9.90;99.90;;;;;;5053531;28;21046;-69
2021/03/11 08:40:55;;;;;;;7.23;5.13;;;10.00;99.90;;;;;;5053644;28;20424;-69
2021/03/11 08:43:36;;;;;;;5.40;4.10;;;10.00;99.90;;;;;;5052798;28;20455;-69
2021/03/11 08:46:09;;;;;;;4.33;3.73;;;10.10;99.90;;;;;;5054426;28;20389;-69
2021/03/11 08:48:56;;;;;;;4.87;4.17;;;10.20;99.90;;;;;;5057880;28;20454;-69
2021/03/11 08:51:21;;;;;;;6.40;3.80;;;10.20;99.90;;;;;;5057689;28;20478;-69
2021/03/11 08:53:51;;;;;;;4.77;3.00;;;10.30;99.90;;;;;;5057811;28;20809;-69
2021/03/11 08:56:16;;;;;;;6.17;2.70;;;10.30;99.90;;;;;;5058156;28;20709;-69
2021/03/11 08:58:51;;;;;;;2.70;2.27;;;10.30;99.90;;;;;;5056369;28;20444;-68
2021/03/11 09:01:45;;;;;;;4.33;2.50;;;10.30;99.90;;;;;;5038091;28;20212;-69
2021/03/11 09:04:19;;;;;;;5.30;2.30;;;10.30;99.90;;;;;;5038548;28;20457;-69
2021/03/11 09:06:54;;;;;;;5.80;2.07;;;10.20;99.90;;;;;;5038045;28;20412;-68
2021/03/11 09:09:40;;;;;;;10.03;2.77;;;10.20;99.90;;;;;;5037483;28;20393;-67
2021/03/11 09:12:08;;;;;;;2.57;2.13;;;10.10;99.90;;;;;;5037091;28;20421;-68
2021/03/11 09:14:35;;;;;;;3.77;1.80;;;10.10;99.90;;;;;;5037564;28;20914;-68
2021/03/11 09:17:09;;;;;;;8.50;3.27;;;10.00;99.90;;;;;;5066239;28;20416;-68
2021/03/11 09:19:43;;;;;;;4.73;2.27;;;9.90;99.90;;;;;;5077940;28;20403;-68
2021/03/11 09:22:24;;;;;;;6.10;2.10;;;9.90;99.90;;;;;;5077312;28;20453;-68
2021/03/11 09:24:57;;;;;;;5.23;1.90;;;9.70;99.90;;;;;;5089137;28;20470;-67
2021/03/11 09:27:22;;;;;;;6.20;2.20;;;9.70;99.90;;;;;;5093172;28;20403;-67
2021/03/11 09:29:49;;;;;;;3.20;1.70;;;9.60;99.90;;;;;;5090179;28;20771;-68
2021/03/11 09:32:15;;;;;;;6.00;2.00;;;9.60;99.90;;;;;;5081526;28;20458;-68
2021/03/11 09:34:57;;;;;;;13.87;1.90;;;9.60;99.90;;;;;;5065049;28;20433;-69
2021/03/11 09:37:49;;;;;;;6.07;2.50;;;9.60;99.90;;;;;;5059532;28;20412;-70
2021/03/11 09:40:34;;;;;;;5.73;2.23;;;9.60;99.90;;;;;;5058929;28;20724;-68
2021/03/11 09:43:04;;;;;;;7.37;2.30;;;9.60;99.90;;;;;;5060627;28;20769;-70
2021/03/11 09:46:02;;;;;;;4.50;2.00;;;9.60;99.90;;;;;;5059156;28;20440;-69
2021/03/11 09:48:33;;;;;;;10.20;2.50;;;9.60;99.90;;;;;;5057615;28;20424;-69
2021/03/11 09:51:07;;;;;;;6.50;2.10;;;9.60;99.90;;;;;;5040889;28;20436;-68
2021/03/11 09:53:40;;;;;;;8.20;2.40;;;9.60;99.90;;;;;;5058621;28;20469;-67
2021/03/11 09:56:10;;;;;;;7.67;2.40;;;9.60;99.90;;;;;;5059257;28;20416;-67
2021/03/11 09:58:45;;;;;;;5.57;2.10;;;9.70;99.90;;;;;;5057411;28;20454;-68
2021/03/11 10:01:11;;;;;;;7.73;2.60;;;9.70;99.90;;;;;;5059847;28;20469;-68
2021/03/11 10:03:37;;;;;;;9.33;3.17;;;9.80;99.90;;;;;;5055802;28;20488;-68
2021/03/11 10:06:05;;;;;;;11.27;2.97;;;9.80;99.90;;;;;;5055177;28;20734;-69
2021/03/11 10:08:39;;;;;;;9.05;2.75;;;9.80;99.90;;;;;;5054386;28;20873;-68
2021/03/11 10:11:13;;;;;;;8.87;2.93;;;9.80;99.90;;;;;;5054662;28;20198;-69
2021/03/11 10:13:49;;;;;;;9.20;2.90;;;9.90;99.90;;;;;;5054386;28;20550;-69
2021/03/11 10:16:18;;;;;;;13.40;3.37;;;10.00;99.90;;;;;;5061368;28;20473;-69
2021/03/11 10:19:04;;;;;;;10.13;3.07;;;10.10;99.90;;;;;;5073990;28;20927;-69
2021/03/11 10:21:32;;;;;;;9.20;2.97;;;10.10;99.90;;;;;;5073596;28;20454;-69
2021/03/11 10:23:57;;;;;;;12.40;3.40;;;10.30;99.90;;;;;;5073930;28;20490;-69
2021/03/11 10:26:25;;;;;;;11.23;3.50;;;10.40;99.90;;;;;;5075706;28;20420;-69
2021/03/11 10:29:00;;;;;;;12.53;4.33;;;10.50;99.90;;;;;;5075471;28;20165;-69
2021/03/11 10:31:26;;;;;;;11.33;3.20;;;10.70;99.90;;;;;;5076079;28;20823;-69
2021/03/11 10:34:09;;;;;;;11.60;4.43;;;10.80;99.90;;;;;;5068227;28;20413;-69
2021/03/11 10:36:36;;;;;;;12.77;3.37;;;10.90;99.90;;;;;;5055828;28;20401;-68
2021/03/11 10:39:03;;;;;;;8.13;2.87;;;10.90;99.90;;;;;;5056467;28;20977;-69
2021/03/11 10:41:29;;;;;;;9.03;3.30;;;11.10;99.90;;;;;;5056253;28;20471;-68
2021/03/11 10:44:16;;;;;;;9.13;2.97;;;11.20;99.90;;;;;;5056668;28;20456;-68
2021/03/11 10:46:42;;;;;;;6.63;3.13;;;11.30;99.90;;;;;;5063345;28;20400;-68
2021/03/11 10:49:09;;;;;;;9.17;3.07;;;11.30;99.90;;;;;;5070265;28;20822;-69
2021/03/11 10:51:34;;;;;;;5.90;2.83;;;11.40;99.90;;;;;;5061599;28;20435;-69
2021/03/11 10:54:01;;;;;;;8.03;2.40;;;11.50;99.90;;;;;;5072299;28;20424;-69
2021/03/11 10:56:27;;;;;;;5.80;2.90;;;11.50;99.90;;;;;;5076357;28;20181;-69
2021/03/11 10:59:03;;;;;;;8.17;3.30;;;11.70;99.90;;;;;;5069533;28;20474;-69
2021/03/11 11:01:29;;;;;;;5.33;2.33;;;11.70;99.90;;;;;;5055908;28;20781;-69
2021/03/11 11:03:56;;;;;;;6.63;2.73;;;11.80;99.90;;;;;;5055895;28;20468;-68
2021/03/11 11:06:24;;;;;;;5.40;1.87;;;11.90;99.90;;;;;;5055526;28;20408;-68
2021/03/11 11:08:50;;;;;;;8.23;2.53;;;12.00;99.90;;;;;;5055365;28;20412;-68
2021/03/11 11:11:17;;;;;;;6.90;2.27;;;12.10;99.90;;;;;;5053846;28;20424;-68
2021/03/11 11:13:43;;;;;;;7.63;2.43;;;12.20;99.90;;;;;;5055930;28;20170;-69
2021/03/11 11:16:12;;;;;;;8.53;2.20;;;12.30;99.90;;;;;;5061522;28;20507;-70
2021/03/11 11:18:39;;;;;;;5.10;2.57;;;12.40;99.90;;;;;;5075211;28;20569;-69
2021/03/11 11:21:05;;;;;;;6.33;2.60;;;12.40;99.90;;;;;;5075051;28;20589;-70
2021/03/11 11:23:31;;;;;;;6.30;2.53;;;12.50;99.70;;;;;;5076021;28;20533;-69
2021/03/11 11:25:57;;;;;;;8.03;2.20;;;12.60;99.70;;;;;;5075663;28;20487;-70
2021/03/11 11:28:23;;;;;;;5.47;2.10;;;12.70;99.70;;;;;;5074879;28;20463;-69
2021/03/11 11:30:49;;;;;;;6.33;2.73;;;12.80;98.80;;;;;;5078154;28;20182;-69
2021/03/11 11:33:15;;;;;;;6.97;2.47;;;12.90;98.40;;;;;;5075448;28;20414;-69
2021/03/11 11:35:40;;;;;;;6.10;2.30;;;13.00;97.50;;;;;;5057351;28;20181;-68
2021/03/11 11:38:06;;;;;;;8.33;2.00;;;13.00;97.20;;;;;;5057660;28;20178;-69
2021/03/11 11:40:32;;;;;;;7.53;2.73;;;12.90;96.50;;;;;;5057105;28;20198;-70
2021/03/11 11:42:59;;;;;;;8.73;2.70;;;13.00;96.30;;;;;;5056898;28;20174;-69
2021/03/11 11:45:24;;;;;;;6.03;2.33;;;13.00;96.20;;;;;;5057061;28;20213;-69
2021/03/11 11:47:50;;;;;;;7.17;2.20;;;13.10;95.60;;;;;;5056151;28;20413;-69
2021/03/11 11:50:16;;;;;;;7.20;2.90;;;13.10;95.00;;;;;;5054233;28;20230;-69
2021/03/11 11:52:42;;;;;;;8.70;2.50;;;13.10;95.10;;;;;;5053493;28;20213;-69
2021/03/11 11:55:13;;;;;;;10.03;3.37;;;13.10;94.90;;;;;;5053822;28;20275;-69
2021/03/11 11:57:40;;;;;;;6.07;2.60;;;13.10;95.20;;;;;;5052639;28;20436;-69
2021/03/11 12:00:12;;;;;;;8.20;2.60;;;13.00;95.50;;;;;;5053838;28;20933;-69
2021/03/11 12:02:40;;;;;;;12.03;3.00;;;13.00;95.70;;;;;;5054659;28;20432;-68
2021/03/11 12:05:07;;;;;;;11.80;3.40;;;13.00;95.50;;;;;;5052294;28;20495;-70
2021/03/11 12:07:35;;;;;;;9.20;2.73;;;13.00;95.20;;;;;;5053134;28;20439;-69
2021/03/11 12:10:00;;;;;;;11.33;3.37;;;13.00;95.20;;;;;;5053776;28;20436;-69
2021/03/11 12:12:26;;;;;;;11.03;3.13;;;13.00;95.20;;;;;;5053337;28;20427;-69
2021/03/11 12:14:52;;;;;;;6.73;2.53;;;13.00;95.10;;;;;;5054104;28;20170;-71
2021/03/11 12:17:18;;;;;;;12.60;3.43;;;13.10;95.00;;;;;;5070456;28;20215;-69
2021/03/11 12:19:43;;;;;;;8.87;3.30;;;13.00;94.80;;;;;;5062813;28;20445;-68
2021/03/11 12:22:09;;;;;;;9.93;2.80;;;13.00;95.00;;;;;;5034111;28;20190;-69
2021/03/11 12:24:34;;;;;;;16.30;4.00;;;13.10;95.00;;;;;;5035996;28;20194;-68
2021/03/11 12:27:00;;;;;;;9.67;3.40;;;13.10;94.50;;;;;;5054021;28;20194;-69
2021/03/11 12:29:26;;;;;;;12.20;3.20;;;13.10;94.60;;;;;;5053691;28;20608;-69
2021/03/11 12:31:51;;;;;;;13.90;3.30;;;13.20;94.70;;;;;;5052935;28;20200;-70
2021/03/11 12:34:17;;;;;;;14.30;3.17;;;13.20;94.90;;;;;;5053509;28;20178;-69
2021/03/11 12:36:43;;;;;;;10.03;3.23;;;13.20;94.80;;;;;;5053292;28;20220;-70
2021/03/11 12:39:10;;;;;;;13.47;4.27;;;13.20;94.70;;;;;;5053596;28;20275;-69
2021/03/11 12:41:36;;;;;;;12.17;3.43;;;13.30;94.50;;;;;;5053694;28;20438;-69
2021/03/11 12:44:02;;;;;;;13.50;3.20;;;13.20;94.30;;;;;;5053766;28;20464;-70
2021/03/11 12:46:27;;;;;;;9.90;2.97;;;13.20;94.30;;;;;;5053367;28;20181;-70
2021/03/11 12:48:53;;;;;;;13.50;3.30;;;13.20;94.10;;;;;;5051976;28;20421;-69
2021/03/11 12:51:20;;;;;;;7.43;2.93;;;13.30;93.90;;;;;;5053583;28;20193;-70
2021/03/11 12:53:47;;;;;;;13.23;3.90;;;13.30;93.90;;;;;;5054152;28;20176;-69
2021/03/11 12:56:12;;;;;;;8.53;3.40;;;13.30;94.00;;;;;;5054060;28;20448;-69
2021/03/11 12:58:39;;;;;;;14.87;4.10;;;13.30;94.10;;;;;;5053284;28;20413;-70
2021/03/11 13:01:04;;;;;;;13.10;3.53;;;13.30;94.20;;;;;;5052274;28;20190;-70
2021/03/11 13:03:30;;;;;;;13.70;2.63;;;13.30;94.10;;;;;;5064429;28;20460;-69